sensor_id;sensor_type;location;lat;lon;timestamp;temperature;humidity
1592;DHT22;789;51.612;7.510;2023-11-21T00:02:25;10.90;1.00
1592;DHT22;789;51.612;7.510;2023-11-21T00:04:53;10.90;1.00
1592;DHT22;789;51.612;7.510;2023-11-21T00:07:21;10.90;1.00
1592;DHT22;789;51.612;7.510;2023-11-21T00:09:48;10.90;1.00
1592;DHT22;789;51.612;7.510;2023-11-21T00:12:15;11.00;1.00
1592;DHT22;789;51.612;7.510;2023-11-21T00:14:43;10.90;1.00
1592;DHT22;789;51.612;7.510;2023-11-21T00:17:10;10.90;1.00
1592;DHT22;789;51.612;7.510;2023-11-21T00:19:36;10.90;1.00
1592;DHT22;789;51.612;7.510;2023-11-21T00:22:03;11.00;1.00
1592;DHT22;789;51.612;7.510;2023-11-21T00:24:33;11.10;1.00
1592;DHT22;789;51.612;7.510;2023-11-21T00:27:00;10.90;1.00
1592;DHT22;789;51.612;7.510;2023-11-21T00:29:27;11.00;1.00
1592;DHT22;789;51.612;7.510;2023-11-21T00:31:54;11.00;1.00
1592;DHT22;789;51.612;7.510;2023-11-21T00:34:21;11.00;1.00
1592;DHT22;789;51.612;7.510;2023-11-21T00:36:48;11.00;1.00
1592;DHT22;789;51.612;7.510;2023-11-21T00:39:15;10.90;1.00
1592;DHT22;789;51.612;7.510;2023-11-21T00:41:43;11.00;1.00
1592;DHT22;789;51.612;7.510;2023-11-21T00:44:10;10.90;1.00
1592;DHT22;789;51.612;7.510;2023-11-21T00:46:37;11.10;1.00
1592;DHT22;789;51.612;7.510;2023-11-21T00:49:04;11.00;1.00
1592;DHT22;789;51.612;7.510;2023-11-21T00:51:31;11.00;1.00
1592;DHT22;789;51.612;7.510;2023-11-21T00:53:58;11.00;1.00
1592;DHT22;789;51.612;7.510;2023-11-21T00:56:26;11.00;1.00
1592;DHT22;789;51.612;7.510;2023-11-21T00:58:54;11.10;1.00
1592;DHT22;789;51.612;7.510;2023-11-21T01:01:21;11.00;1.00
1592;DHT22;789;51.612;7.510;2023-11-21T01:03:48;11.10;1.00
1592;DHT22;789;51.612;7.510;2023-11-21T01:06:15;11.00;1.00
1592;DHT22;789;51.612;7.510;2023-11-21T01:08:43;11.00;1.00
1592;DHT22;789;51.612;7.510;2023-11-21T01:11:10;11.10;1.00
1592;DHT22;789;51.612;7.510;2023-11-21T01:13:38;11.00;1.00
1592;DHT22;789;51.612;7.510;2023-11-21T01:16:07;11.00;1.00
1592;DHT22;789;51.612;7.510;2023-11-21T01:18:35;11.00;1.00
1592;DHT22;789;51.612;7.510;2023-11-21T01:21:02;11.00;1.00
1592;DHT22;789;51.612;7.510;2023-11-21T01:23:30;11.00;1.00
1592;DHT22;789;51.612;7.510;2023-11-21T01:25:57;11.00;1.00
1592;DHT22;789;51.612;7.510;2023-11-21T01:28:24;10.90;1.00
1592;DHT22;789;51.612;7.510;2023-11-21T01:30:52;11.00;1.00
1592;DHT22;789;51.612;7.510;2023-11-21T01:33:23;11.00;1.00
1592;DHT22;789;51.612;7.510;2023-11-21T01:35:50;10.90;1.00
1592;DHT22;789;51.612;7.510;2023-11-21T01:38:20;11.10;1.00
1592;DHT22;789;51.612;7.510;2023-11-21T01:40:47;11.00;1.00
1592;DHT22;789;51.612;7.510;2023-11-21T01:43:14;10.90;1.00
1592;DHT22;789;51.612;7.510;2023-11-21T01:45:42;10.90;1.00
1592;DHT22;789;51.612;7.510;2023-11-21T01:48:11;10.90;1.00
1592;DHT22;789;51.612;7.510;2023-11-21T01:50:41;10.80;1.00
1592;DHT22;789;51.612;7.510;2023-11-21T01:53:08;10.90;1.00
1592;DHT22;789;51.612;7.510;2023-11-21T01:55:35;10.80;1.00
1592;DHT22;789;51.612;7.510;2023-11-21T01:58:05;10.80;1.00
1592;DHT22;789;51.612;7.510;2023-11-21T02:00:36;11.00;1.00
1592;DHT22;789;51.612;7.510;2023-11-21T02:03:04;10.80;1.00
1592;DHT22;789;51.612;7.510;2023-11-21T02:05:33;10.70;1.00
1592;DHT22;789;51.612;7.510;2023-11-21T02:08:04;10.90;1.00
1592;DHT22;789;51.612;7.510;2023-11-21T02:10:31;10.70;1.00
1592;DHT22;789;51.612;7.510;2023-11-21T02:12:58;10.60;1.00
1592;DHT22;789;51.612;7.510;2023-11-21T02:15:28;10.60;1.00
1592;DHT22;789;51.612;7.510;2023-11-21T02:17:56;10.60;1.00
1592;DHT22;789;51.612;7.510;2023-11-21T02:20:23;10.60;1.00
1592;DHT22;789;51.612;7.510;2023-11-21T02:22:54;10.50;1.00
1592;DHT22;789;51.612;7.510;2023-11-21T02:25:23;10.50;1.00
1592;DHT22;789;51.612;7.510;2023-11-21T02:27:50;10.50;1.00
1592;DHT22;789;51.612;7.510;2023-11-21T02:30:17;10.50;1.00
1592;DHT22;789;51.612;7.510;2023-11-21T02:32:47;10.50;1.00
1592;DHT22;789;51.612;7.510;2023-11-21T02:35:14;10.50;1.00
1592;DHT22;789;51.612;7.510;2023-11-21T02:37:43;10.50;1.00
1592;DHT22;789;51.612;7.510;2023-11-21T02:40:12;10.50;1.00
1592;DHT22;789;51.612;7.510;2023-11-21T02:42:43;10.70;1.00
1592;DHT22;789;51.612;7.510;2023-11-21T02:45:10;10.50;1.00
1592;DHT22;789;51.612;7.510;2023-11-21T02:47:38;10.50;1.00
1592;DHT22;789;51.612;7.510;2023-11-21T02:50:06;10.50;1.00
1592;DHT22;789;51.612;7.510;2023-11-21T02:52:34;10.50;1.00
1592;DHT22;789;51.612;7.510;2023-11-21T02:55:01;10.50;1.00
1592;DHT22;789;51.612;7.510;2023-11-21T02:57:29;10.50;1.00
1592;DHT22;789;51.612;7.510;2023-11-21T03:00:05;10.50;1.00
1592;DHT22;789;51.612;7.510;2023-11-21T03:02:33;10.50;1.00
1592;DHT22;789;51.612;7.510;2023-11-21T03:05:06;10.50;1.00
1592;DHT22;789;51.612;7.510;2023-11-21T03:07:34;10.60;1.00
1592;DHT22;789;51.612;7.510;2023-11-21T03:10:03;10.60;1.00
1592;DHT22;789;51.612;7.510;2023-11-21T03:12:35;10.60;1.00
1592;DHT22;789;51.612;7.510;2023-11-21T03:15:03;10.60;1.00
1592;DHT22;789;51.612;7.510;2023-11-21T03:17:31;10.50;1.00
1592;DHT22;789;51.612;7.510;2023-11-21T03:19:59;10.80;1.00
1592;DHT22;789;51.612;7.510;2023-11-21T03:22:28;10.50;1.00
1592;DHT22;789;51.612;7.510;2023-11-21T03:24:54;10.50;1.00
1592;DHT22;789;51.612;7.510;2023-11-21T03:27:23;10.50;1.00
1592;DHT22;789;51.612;7.510;2023-11-21T03:29:51;10.50;1.00
1592;DHT22;789;51.612;7.510;2023-11-21T03:32:18;10.50;1.00
1592;DHT22;789;51.612;7.510;2023-11-21T03:34:56;10.50;1.00
1592;DHT22;789;51.612;7.510;2023-11-21T03:37:23;10.50;1.00
1592;DHT22;789;51.612;7.510;2023-11-21T03:39:51;10.50;1.00
1592;DHT22;789;51.612;7.510;2023-11-21T03:42:17;10.50;1.00
1592;DHT22;789;51.612;7.510;2023-11-21T03:44:46;10.50;1.00
1592;DHT22;789;51.612;7.510;2023-11-21T03:47:19;10.50;1.00
1592;DHT22;789;51.612;7.510;2023-11-21T03:49:46;10.60;1.00
1592;DHT22;789;51.612;7.510;2023-11-21T03:52:13;10.50;1.00
1592;DHT22;789;51.612;7.510;2023-11-21T03:54:40;10.90;1.00
1592;DHT22;789;51.612;7.510;2023-11-21T03:57:08;10.60;1.00
1592;DHT22;789;51.612;7.510;2023-11-21T03:59:40;10.60;1.00
1592;DHT22;789;51.612;7.510;2023-11-21T04:02:07;10.60;1.00
1592;DHT22;789;51.612;7.510;2023-11-21T04:04:36;10.60;1.00
1592;DHT22;789;51.612;7.510;2023-11-21T04:07:03;10.60;1.00
1592;DHT22;789;51.612;7.510;2023-11-21T04:09:30;10.60;1.00
1592;DHT22;789;51.612;7.510;2023-11-21T04:11:57;10.70;1.00
1592;DHT22;789;51.612;7.510;2023-11-21T04:14:24;10.60;1.00
1592;DHT22;789;51.612;7.510;2023-11-21T04:16:51;10.60;1.00
1592;DHT22;789;51.612;7.510;2023-11-21T04:19:19;11.00;1.00
1592;DHT22;789;51.612;7.510;2023-11-21T04:21:47;10.60;1.00
1592;DHT22;789;51.612;7.510;2023-11-21T04:24:14;10.60;1.00
1592;DHT22;789;51.612;7.510;2023-11-21T04:26:41;10.70;1.00
1592;DHT22;789;51.612;7.510;2023-11-21T04:29:08;10.70;1.00
1592;DHT22;789;51.612;7.510;2023-11-21T04:31:36;10.60;1.00
1592;DHT22;789;51.612;7.510;2023-11-21T04:34:02;10.70;1.00
1592;DHT22;789;51.612;7.510;2023-11-21T04:36:30;10.70;1.00
1592;DHT22;789;51.612;7.510;2023-11-21T04:38:58;10.70;1.00
1592;DHT22;789;51.612;7.510;2023-11-21T04:41:25;10.70;1.00
1592;DHT22;789;51.612;7.510;2023-11-21T04:43:52;10.70;1.00
1592;DHT22;789;51.612;7.510;2023-11-21T04:46:19;10.70;1.00
1592;DHT22;789;51.612;7.510;2023-11-21T04:48:47;10.70;1.00
1592;DHT22;789;51.612;7.510;2023-11-21T04:51:13;10.70;1.00
1592;DHT22;789;51.612;7.510;2023-11-21T04:53:41;10.70;1.00
1592;DHT22;789;51.612;7.510;2023-11-21T04:56:10;10.70;1.00
1592;DHT22;789;51.612;7.510;2023-11-21T04:58:38;10.60;1.00
1592;DHT22;789;51.612;7.510;2023-11-21T05:01:06;10.60;1.00
1592;DHT22;789;51.612;7.510;2023-11-21T05:03:33;10.60;1.00
1592;DHT22;789;51.612;7.510;2023-11-21T05:06:01;10.50;1.00
1592;DHT22;789;51.612;7.510;2023-11-21T05:08:28;10.50;1.00
1592;DHT22;789;51.612;7.510;2023-11-21T05:10:55;10.40;1.00
1592;DHT22;789;51.612;7.510;2023-11-21T05:13:23;10.40;1.00
1592;DHT22;789;51.612;7.510;2023-11-21T05:15:53;10.30;1.00
1592;DHT22;789;51.612;7.510;2023-11-21T05:18:20;10.30;1.00
1592;DHT22;789;51.612;7.510;2023-11-21T05:20:46;10.50;1.00
1592;DHT22;789;51.612;7.510;2023-11-21T05:23:15;10.20;1.00
1592;DHT22;789;51.612;7.510;2023-11-21T05:25:42;10.20;1.00
1592;DHT22;789;51.612;7.510;2023-11-21T05:28:09;10.20;1.00
1592;DHT22;789;51.612;7.510;2023-11-21T05:30:39;10.20;1.00
1592;DHT22;789;51.612;7.510;2023-11-21T05:33:06;10.10;1.00
1592;DHT22;789;51.612;7.510;2023-11-21T05:35:34;10.10;1.00
1592;DHT22;789;51.612;7.510;2023-11-21T05:38:01;10.10;1.00
1592;DHT22;789;51.612;7.510;2023-11-21T05:40:28;10.00;1.00
1592;DHT22;789;51.612;7.510;2023-11-21T05:42:55;10.00;1.00
1592;DHT22;789;51.612;7.510;2023-11-21T05:45:22;10.10;1.00
1592;DHT22;789;51.612;7.510;2023-11-21T05:47:52;10.10;1.00
1592;DHT22;789;51.612;7.510;2023-11-21T05:50:18;10.10;1.00
1592;DHT22;789;51.612;7.510;2023-11-21T05:52:47;10.10;1.00
1592;DHT22;789;51.612;7.510;2023-11-21T05:55:15;10.00;1.00
1592;DHT22;789;51.612;7.510;2023-11-21T05:57:46;10.00;1.00
1592;DHT22;789;51.612;7.510;2023-11-21T06:00:14;10.00;1.00
1592;DHT22;789;51.612;7.510;2023-11-21T06:02:45;10.00;1.00
1592;DHT22;789;51.612;7.510;2023-11-21T06:05:14;10.00;1.00
1592;DHT22;789;51.612;7.510;2023-11-21T06:07:41;10.00;1.00
1592;DHT22;789;51.612;7.510;2023-11-21T06:10:08;9.90;1.00
1592;DHT22;789;51.612;7.510;2023-11-21T06:12:36;9.90;1.00
1592;DHT22;789;51.612;7.510;2023-11-21T06:15:04;9.90;1.00
1592;DHT22;789;51.612;7.510;2023-11-21T06:17:33;10.00;1.00
1592;DHT22;789;51.612;7.510;2023-11-21T06:20:01;10.00;1.00
1592;DHT22;789;51.612;7.510;2023-11-21T06:22:35;9.90;1.00
1592;DHT22;789;51.612;7.510;2023-11-21T06:25:03;10.00;1.00
1592;DHT22;789;51.612;7.510;2023-11-21T06:27:31;9.90;1.00
1592;DHT22;789;51.612;7.510;2023-11-21T06:29:58;9.90;1.00
1592;DHT22;789;51.612;7.510;2023-11-21T06:32:24;9.90;1.00
1592;DHT22;789;51.612;7.510;2023-11-21T06:34:51;9.90;1.00
1592;DHT22;789;51.612;7.510;2023-11-21T06:37:19;9.90;1.00
1592;DHT22;789;51.612;7.510;2023-11-21T06:39:49;9.90;1.00
1592;DHT22;789;51.612;7.510;2023-11-21T06:42:17;9.80;1.00
1592;DHT22;789;51.612;7.510;2023-11-21T06:44:44;9.80;1.00
1592;DHT22;789;51.612;7.510;2023-11-21T06:47:11;9.80;1.00
1592;DHT22;789;51.612;7.510;2023-11-21T06:49:40;9.80;1.00
1592;DHT22;789;51.612;7.510;2023-11-21T06:52:07;9.80;1.00
1592;DHT22;789;51.612;7.510;2023-11-21T06:54:34;9.80;1.00
1592;DHT22;789;51.612;7.510;2023-11-21T06:57:03;9.90;1.00
1592;DHT22;789;51.612;7.510;2023-11-21T06:59:30;9.90;1.00
1592;DHT22;789;51.612;7.510;2023-11-21T07:01:57;9.90;1.00
1592;DHT22;789;51.612;7.510;2023-11-21T07:04:24;9.90;1.00
1592;DHT22;789;51.612;7.510;2023-11-21T07:06:51;9.90;1.00
1592;DHT22;789;51.612;7.510;2023-11-21T07:09:17;9.90;1.00
1592;DHT22;789;51.612;7.510;2023-11-21T07:11:47;10.00;1.00
1592;DHT22;789;51.612;7.510;2023-11-21T07:14:15;10.00;1.00
1592;DHT22;789;51.612;7.510;2023-11-21T07:16:45;10.20;1.00
1592;DHT22;789;51.612;7.510;2023-11-21T07:19:12;10.10;1.00
1592;DHT22;789;51.612;7.510;2023-11-21T07:21:40;10.10;1.00
1592;DHT22;789;51.612;7.510;2023-11-21T07:24:07;10.00;1.00
1592;DHT22;789;51.612;7.510;2023-11-21T07:26:35;10.10;1.00
1592;DHT22;789;51.612;7.510;2023-11-21T07:29:02;10.10;1.00
1592;DHT22;789;51.612;7.510;2023-11-21T07:31:31;10.20;1.00
1592;DHT22;789;51.612;7.510;2023-11-21T07:33:59;10.20;1.00
1592;DHT22;789;51.612;7.510;2023-11-21T07:36:27;10.20;1.00
1592;DHT22;789;51.612;7.510;2023-11-21T07:38:54;10.30;1.00
1592;DHT22;789;51.612;7.510;2023-11-21T07:41:21;10.50;1.00
1592;DHT22;789;51.612;7.510;2023-11-21T07:43:48;10.30;1.00
1592;DHT22;789;51.612;7.510;2023-11-21T07:46:14;10.60;1.00
1592;DHT22;789;51.612;7.510;2023-11-21T07:48:44;10.40;1.00
1592;DHT22;789;51.612;7.510;2023-11-21T07:51:12;10.40;1.00
1592;DHT22;789;51.612;7.510;2023-11-21T07:53:39;10.40;1.00
1592;DHT22;789;51.612;7.510;2023-11-21T07:56:07;10.40;1.00
1592;DHT22;789;51.612;7.510;2023-11-21T07:58:35;10.40;1.00
1592;DHT22;789;51.612;7.510;2023-11-21T08:01:03;10.90;1.00
1592;DHT22;789;51.612;7.510;2023-11-21T08:03:30;10.50;1.00
1592;DHT22;789;51.612;7.510;2023-11-21T08:06:01;10.60;1.00
1592;DHT22;789;51.612;7.510;2023-11-21T08:08:29;10.70;1.00
1592;DHT22;789;51.612;7.510;2023-11-21T08:10:55;10.80;1.00
1592;DHT22;789;51.612;7.510;2023-11-21T08:13:22;10.80;1.00
1592;DHT22;789;51.612;7.510;2023-11-21T08:15:49;10.70;1.00
1592;DHT22;789;51.612;7.510;2023-11-21T08:18:16;10.80;1.00
1592;DHT22;789;51.612;7.510;2023-11-21T08:20:43;10.80;1.00
1592;DHT22;789;51.612;7.510;2023-11-21T08:23:14;10.90;1.00
1592;DHT22;789;51.612;7.510;2023-11-21T08:25:42;10.70;1.00
1592;DHT22;789;51.612;7.510;2023-11-21T08:28:09;11.20;1.00
1592;DHT22;789;51.612;7.510;2023-11-21T08:30:36;10.90;1.00
1592;DHT22;789;51.612;7.510;2023-11-21T08:33:03;10.70;1.00
1592;DHT22;789;51.612;7.510;2023-11-21T08:35:30;10.70;1.00
1592;DHT22;789;51.612;7.510;2023-11-21T08:37:58;11.00;1.00
1592;DHT22;789;51.612;7.510;2023-11-21T08:40:26;10.80;1.00
1592;DHT22;789;51.612;7.510;2023-11-21T08:42:53;10.70;1.00
1592;DHT22;789;51.612;7.510;2023-11-21T08:45:21;10.70;1.00
1592;DHT22;789;51.612;7.510;2023-11-21T08:47:48;10.70;1.00
1592;DHT22;789;51.612;7.510;2023-11-21T08:50:15;10.60;1.00
1592;DHT22;789;51.612;7.510;2023-11-21T08:52:43;10.60;1.00
1592;DHT22;789;51.612;7.510;2023-11-21T08:55:11;10.90;1.00
1592;DHT22;789;51.612;7.510;2023-11-21T08:57:43;10.60;1.00
1592;DHT22;789;51.612;7.510;2023-11-21T09:00:11;10.60;1.00
1592;DHT22;789;51.612;7.510;2023-11-21T09:02:39;10.60;1.00
1592;DHT22;789;51.612;7.510;2023-11-21T09:05:08;10.60;1.00
1592;DHT22;789;51.612;7.510;2023-11-21T09:07:35;10.60;1.00
1592;DHT22;789;51.612;7.510;2023-11-21T09:10:02;11.10;1.00
1592;DHT22;789;51.612;7.510;2023-11-21T09:12:31;10.70;1.00
1592;DHT22;789;51.612;7.510;2023-11-21T09:14:59;10.80;1.00
1592;DHT22;789;51.612;7.510;2023-11-21T09:17:27;11.30;1.00
1592;DHT22;789;51.612;7.510;2023-11-21T09:19:54;10.80;1.00
1592;DHT22;789;51.612;7.510;2023-11-21T09:22:22;10.90;1.00
1592;DHT22;789;51.612;7.510;2023-11-21T09:24:50;10.90;1.00
1592;DHT22;789;51.612;7.510;2023-11-21T09:27:17;10.90;1.00
1592;DHT22;789;51.612;7.510;2023-11-21T09:29:44;11.00;1.00
1592;DHT22;789;51.612;7.510;2023-11-21T09:32:12;11.30;1.00
1592;DHT22;789;51.612;7.510;2023-11-21T09:34:44;11.00;1.00
1592;DHT22;789;51.612;7.510;2023-11-21T09:37:11;11.00;1.00
1592;DHT22;789;51.612;7.510;2023-11-21T09:39:37;11.00;1.00
1592;DHT22;789;51.612;7.510;2023-11-21T09:42:10;10.90;1.00
1592;DHT22;789;51.612;7.510;2023-11-21T09:44:45;10.90;1.00
1592;DHT22;789;51.612;7.510;2023-11-21T09:47:16;10.90;1.00
1592;DHT22;789;51.612;7.510;2023-11-21T09:49:47;10.80;1.00
1592;DHT22;789;51.612;7.510;2023-11-21T09:52:20;10.80;1.00
1592;DHT22;789;51.612;7.510;2023-11-21T09:54:50;10.80;1.00
1592;DHT22;789;51.612;7.510;2023-11-21T09:57:17;11.00;1.00
1592;DHT22;789;51.612;7.510;2023-11-21T09:59:47;10.80;1.00
1592;DHT22;789;51.612;7.510;2023-11-21T10:02:18;10.90;1.00
1592;DHT22;789;51.612;7.510;2023-11-21T10:04:46;10.90;1.00
1592;DHT22;789;51.612;7.510;2023-11-21T10:07:17;10.90;1.00
1592;DHT22;789;51.612;7.510;2023-11-21T10:09:44;11.00;1.00
1592;DHT22;789;51.612;7.510;2023-11-21T10:12:14;11.00;1.00
1592;DHT22;789;51.612;7.510;2023-11-21T10:14:43;11.30;1.00
1592;DHT22;789;51.612;7.510;2023-11-21T10:17:18;11.10;1.00
1592;DHT22;789;51.612;7.510;2023-11-21T10:19:46;10.70;1.00
1592;DHT22;789;51.612;7.510;2023-11-21T10:22:15;11.10;1.00
1592;DHT22;789;51.612;7.510;2023-11-21T10:24:43;11.30;1.00
1592;DHT22;789;51.612;7.510;2023-11-21T10:27:11;11.30;1.00
1592;DHT22;789;51.612;7.510;2023-11-21T10:29:39;11.40;1.00
1592;DHT22;789;51.612;7.510;2023-11-21T10:32:07;11.40;1.00
1592;DHT22;789;51.612;7.510;2023-11-21T10:34:36;11.40;1.00
1592;DHT22;789;51.612;7.510;2023-11-21T10:37:11;11.40;1.00
1592;DHT22;789;51.612;7.510;2023-11-21T10:39:39;11.30;1.00
1592;DHT22;789;51.612;7.510;2023-11-21T10:42:08;11.30;1.00
1592;DHT22;789;51.612;7.510;2023-11-21T10:44:35;11.40;1.00
1592;DHT22;789;51.612;7.510;2023-11-21T10:47:03;11.40;1.00
1592;DHT22;789;51.612;7.510;2023-11-21T10:49:30;11.50;1.00
1592;DHT22;789;51.612;7.510;2023-11-21T10:51:59;11.40;1.00
1592;DHT22;789;51.612;7.510;2023-11-21T10:54:26;11.50;1.00
1592;DHT22;789;51.612;7.510;2023-11-21T10:56:57;11.50;1.00
1592;DHT22;789;51.612;7.510;2023-11-21T10:59:25;11.50;1.00
1592;DHT22;789;51.612;7.510;2023-11-21T11:01:57;11.60;1.00
1592;DHT22;789;51.612;7.510;2023-11-21T11:04:27;11.50;1.00
1592;DHT22;789;51.612;7.510;2023-11-21T11:07:01;11.50;1.00
1592;DHT22;789;51.612;7.510;2023-11-21T11:09:31;11.50;1.00
1592;DHT22;789;51.612;7.510;2023-11-21T11:11:59;11.50;1.00
1592;DHT22;789;51.612;7.510;2023-11-21T11:14:27;11.50;1.00
1592;DHT22;789;51.612;7.510;2023-11-21T11:16:54;11.40;1.00
1592;DHT22;789;51.612;7.510;2023-11-21T11:19:21;11.40;1.00
1592;DHT22;789;51.612;7.510;2023-11-21T11:21:53;11.50;1.00
1592;DHT22;789;51.612;7.510;2023-11-21T11:24:36;11.40;1.00
1592;DHT22;789;51.612;7.510;2023-11-21T11:27:16;11.50;1.00
1592;DHT22;789;51.612;7.510;2023-11-21T11:29:59;11.50;1.00
1592;DHT22;789;51.612;7.510;2023-11-21T11:32:40;11.90;1.00
1592;DHT22;789;51.612;7.510;2023-11-21T11:35:13;11.90;1.00
1592;DHT22;789;51.612;7.510;2023-11-21T11:37:44;11.40;1.00
1592;DHT22;789;51.612;7.510;2023-11-21T11:40:12;11.40;1.00
1592;DHT22;789;51.612;7.510;2023-11-21T11:42:55;11.40;1.00
1592;DHT22;789;51.612;7.510;2023-11-21T11:45:32;11.50;1.00
1592;DHT22;789;51.612;7.510;2023-11-21T11:48:01;11.60;1.00
1592;DHT22;789;51.612;7.510;2023-11-21T11:50:29;11.50;1.00
1592;DHT22;789;51.612;7.510;2023-11-21T11:53:12;11.60;1.00
1592;DHT22;789;51.612;7.510;2023-11-21T11:55:40;11.50;1.00
1592;DHT22;789;51.612;7.510;2023-11-21T11:58:08;11.50;1.00
1592;DHT22;789;51.612;7.510;2023-11-21T12:00:35;11.50;1.00
1592;DHT22;789;51.612;7.510;2023-11-21T12:03:08;11.50;1.00
1592;DHT22;789;51.612;7.510;2023-11-21T12:05:36;11.40;1.00
1592;DHT22;789;51.612;7.510;2023-11-21T12:08:05;11.40;1.00
1592;DHT22;789;51.612;7.510;2023-11-21T12:10:34;11.40;1.00
1592;DHT22;789;51.612;7.510;2023-11-21T12:13:05;11.40;1.00
1592;DHT22;789;51.612;7.510;2023-11-21T12:15:33;11.50;1.00
1592;DHT22;789;51.612;7.510;2023-11-21T12:18:01;11.50;1.00
1592;DHT22;789;51.612;7.510;2023-11-21T12:20:28;11.50;1.00
1592;DHT22;789;51.612;7.510;2023-11-21T12:22:56;11.40;1.00
1592;DHT22;789;51.612;7.510;2023-11-21T12:25:25;11.40;1.00
1592;DHT22;789;51.612;7.510;2023-11-21T12:27:55;11.30;1.00
1592;DHT22;789;51.612;7.510;2023-11-21T12:30:26;11.30;1.00
1592;DHT22;789;51.612;7.510;2023-11-21T12:32:57;11.30;1.00
1592;DHT22;789;51.612;7.510;2023-11-21T12:35:26;11.30;1.00
1592;DHT22;789;51.612;7.510;2023-11-21T12:37:54;11.20;1.00
1592;DHT22;789;51.612;7.510;2023-11-21T12:40:24;11.20;1.00
1592;DHT22;789;51.612;7.510;2023-11-21T12:42:53;11.20;1.00
1592;DHT22;789;51.612;7.510;2023-11-21T12:45:21;11.20;1.00
1592;DHT22;789;51.612;7.510;2023-11-21T12:47:54;11.20;1.00
1592;DHT22;789;51.612;7.510;2023-11-21T12:50:26;11.10;1.00
1592;DHT22;789;51.612;7.510;2023-11-21T12:52:57;11.20;1.00
1592;DHT22;789;51.612;7.510;2023-11-21T12:55:25;11.20;1.00
1592;DHT22;789;51.612;7.510;2023-11-21T12:57:53;11.20;1.00
1592;DHT22;789;51.612;7.510;2023-11-21T13:00:28;11.20;1.00
1592;DHT22;789;51.612;7.510;2023-11-21T13:02:59;11.20;1.00
1592;DHT22;789;51.612;7.510;2023-11-21T13:05:27;11.20;1.00
1592;DHT22;789;51.612;7.510;2023-11-21T13:07:55;11.20;1.00
1592;DHT22;789;51.612;7.510;2023-11-21T13:10:24;11.20;1.00
1592;DHT22;789;51.612;7.510;2023-11-21T13:12:55;11.10;1.00
1592;DHT22;789;51.612;7.510;2023-11-21T13:15:24;11.10;1.00
1592;DHT22;789;51.612;7.510;2023-11-21T13:17:52;11.00;1.00
1592;DHT22;789;51.612;7.510;2023-11-21T13:20:22;11.10;1.00
1592;DHT22;789;51.612;7.510;2023-11-21T13:22:50;11.10;1.00
1592;DHT22;789;51.612;7.510;2023-11-21T13:25:20;11.10;1.00
1592;DHT22;789;51.612;7.510;2023-11-21T13:27:47;11.10;1.00
1592;DHT22;789;51.612;7.510;2023-11-21T13:30:15;11.10;1.00
1592;DHT22;789;51.612;7.510;2023-11-21T13:32:43;11.10;1.00
1592;DHT22;789;51.612;7.510;2023-11-21T13:35:11;11.10;1.00
1592;DHT22;789;51.612;7.510;2023-11-21T13:37:49;11.00;1.00
1592;DHT22;789;51.612;7.510;2023-11-21T13:40:20;11.00;1.00
1592;DHT22;789;51.612;7.510;2023-11-21T13:42:49;11.00;1.00
1592;DHT22;789;51.612;7.510;2023-11-21T13:45:19;10.90;1.00
1592;DHT22;789;51.612;7.510;2023-11-21T13:47:48;10.80;1.00
1592;DHT22;789;51.612;7.510;2023-11-21T13:50:17;10.80;1.00
1592;DHT22;789;51.612;7.510;2023-11-21T13:52:49;10.80;1.00
1592;DHT22;789;51.612;7.510;2023-11-21T13:55:18;10.90;1.00
1592;DHT22;789;51.612;7.510;2023-11-21T13:57:48;10.80;1.00
1592;DHT22;789;51.612;7.510;2023-11-21T14:00:18;10.80;1.00
1592;DHT22;789;51.612;7.510;2023-11-21T14:02:59;10.70;1.00
1592;DHT22;789;51.612;7.510;2023-11-21T14:05:27;10.70;1.00
1592;DHT22;789;51.612;7.510;2023-11-21T14:07:56;10.70;1.00
1592;DHT22;789;51.612;7.510;2023-11-21T14:10:29;10.60;1.00
1592;DHT22;789;51.612;7.510;2023-11-21T14:13:02;10.70;1.00
1592;DHT22;789;51.612;7.510;2023-11-21T14:15:30;10.70;1.00
1592;DHT22;789;51.612;7.510;2023-11-21T14:17:58;10.70;1.00
1592;DHT22;789;51.612;7.510;2023-11-21T14:20:28;10.60;1.00
1592;DHT22;789;51.612;7.510;2023-11-21T14:22:57;10.60;1.00
1592;DHT22;789;51.612;7.510;2023-11-21T14:25:24;10.60;1.00
1592;DHT22;789;51.612;7.510;2023-11-21T14:27:52;10.60;1.00
1592;DHT22;789;51.612;7.510;2023-11-21T14:30:19;10.60;1.00
1592;DHT22;789;51.612;7.510;2023-11-21T14:32:48;10.60;1.00
1592;DHT22;789;51.612;7.510;2023-11-21T14:35:15;10.50;1.00
1592;DHT22;789;51.612;7.510;2023-11-21T14:37:42;10.50;1.00
1592;DHT22;789;51.612;7.510;2023-11-21T14:40:12;10.50;1.00
1592;DHT22;789;51.612;7.510;2023-11-21T14:42:41;10.50;1.00
1592;DHT22;789;51.612;7.510;2023-11-21T14:45:09;10.50;1.00
1592;DHT22;789;51.612;7.510;2023-11-21T14:47:38;10.50;1.00
1592;DHT22;789;51.612;7.510;2023-11-21T14:50:10;10.40;1.00
1592;DHT22;789;51.612;7.510;2023-11-21T14:53:05;10.40;1.00
1592;DHT22;789;51.612;7.510;2023-11-21T14:55:33;10.40;1.00
1592;DHT22;789;51.612;7.510;2023-11-21T14:58:13;10.40;1.00
1592;DHT22;789;51.612;7.510;2023-11-21T15:00:44;10.20;1.00
1592;DHT22;789;51.612;7.510;2023-11-21T15:03:12;10.10;1.00
1592;DHT22;789;51.612;7.510;2023-11-21T15:05:57;10.00;1.00
1592;DHT22;789;51.612;7.510;2023-11-21T15:08:24;9.90;1.00
1592;DHT22;789;51.612;7.510;2023-11-21T15:10:57;9.90;1.00
1592;DHT22;789;51.612;7.510;2023-11-21T15:13:24;9.20;1.00
1592;DHT22;789;51.612;7.510;2023-11-21T15:15:52;9.70;1.00
1592;DHT22;789;51.612;7.510;2023-11-21T15:18:20;9.60;1.00
1592;DHT22;789;51.612;7.510;2023-11-21T15:20:47;9.60;1.00
1592;DHT22;789;51.612;7.510;2023-11-21T15:23:14;9.60;1.00
1592;DHT22;789;51.612;7.510;2023-11-21T15:25:46;9.50;1.00
1592;DHT22;789;51.612;7.510;2023-11-21T15:28:15;9.50;1.00
1592;DHT22;789;51.612;7.510;2023-11-21T15:30:42;9.50;1.00
1592;DHT22;789;51.612;7.510;2023-11-21T15:33:12;9.50;1.00
1592;DHT22;789;51.612;7.510;2023-11-21T15:35:39;9.50;1.00
1592;DHT22;789;51.612;7.510;2023-11-21T15:38:07;9.40;1.00
1592;DHT22;789;51.612;7.510;2023-11-21T15:40:34;9.40;1.00
1592;DHT22;789;51.612;7.510;2023-11-21T15:43:01;9.40;1.00
1592;DHT22;789;51.612;7.510;2023-11-21T15:45:30;9.40;1.00
1592;DHT22;789;51.612;7.510;2023-11-21T15:47:57;9.30;1.00
1592;DHT22;789;51.612;7.510;2023-11-21T15:50:24;9.30;1.00
1592;DHT22;789;51.612;7.510;2023-11-21T15:52:54;9.20;1.00
1592;DHT22;789;51.612;7.510;2023-11-21T15:55:22;9.30;1.00
1592;DHT22;789;51.612;7.510;2023-11-21T15:57:50;9.20;1.00
1592;DHT22;789;51.612;7.510;2023-11-21T16:00:17;9.20;1.00
1592;DHT22;789;51.612;7.510;2023-11-21T16:02:48;9.20;1.00
1592;DHT22;789;51.612;7.510;2023-11-21T16:05:15;9.20;1.00
1592;DHT22;789;51.612;7.510;2023-11-21T16:07:46;9.20;1.00
1592;DHT22;789;51.612;7.510;2023-11-21T16:10:18;9.10;1.00
1592;DHT22;789;51.612;7.510;2023-11-21T16:12:45;9.10;1.00
1592;DHT22;789;51.612;7.510;2023-11-21T16:15:12;9.10;1.00
1592;DHT22;789;51.612;7.510;2023-11-21T16:17:39;9.20;1.00
1592;DHT22;789;51.612;7.510;2023-11-21T16:20:09;9.10;1.00
1592;DHT22;789;51.612;7.510;2023-11-21T16:22:38;9.10;1.00
1592;DHT22;789;51.612;7.510;2023-11-21T16:25:05;9.00;1.00
1592;DHT22;789;51.612;7.510;2023-11-21T16:27:36;9.10;1.00
1592;DHT22;789;51.612;7.510;2023-11-21T16:30:04;9.00;1.00
1592;DHT22;789;51.612;7.510;2023-11-21T16:32:32;9.10;1.00
1592;DHT22;789;51.612;7.510;2023-11-21T16:35:01;9.00;1.00
1592;DHT22;789;51.612;7.510;2023-11-21T16:37:30;9.10;1.00
1592;DHT22;789;51.612;7.510;2023-11-21T16:39:57;9.00;1.00
1592;DHT22;789;51.612;7.510;2023-11-21T16:42:24;9.10;1.00
1592;DHT22;789;51.612;7.510;2023-11-21T16:44:56;9.10;1.00
1592;DHT22;789;51.612;7.510;2023-11-21T16:47:23;9.10;1.00